Bulk Hong Kong — 3EEW4 — position and weather

sailwx.info

Track history (hours):
 
Tides and Currents Weather Stations Pressure Air Temp Water Temp Dewpoint Dewpoint Depression Visibility Wind Speed Wind Dir Waves Ship Positions

Bulk Hong Kong

Last reported at 2016-Nov-30 14:33 UTC. Time now 2016-Dec-08 02:11 UTC.
Position N 38°27' E 121°08'.

Length 289 m; draft 8.2 m.

Type: Cargo ship. MMSI: 371828000.

Date/timePositionNaut miles runAvg speedWind from/ knotsBaromVisibWave heightAir tempDewpointWater temp
2016-Nov-30 14:33N 38°27' E 121°08'1312.6
2016-Nov-30 13:33N 38°33' E 120°54'1313.2
2016-Nov-30 12:33N 38°36' E 120°38'102 9.1
2016-Nov-30 01:26N 38°55' E 118°30'0 0.0
2016-Nov-30 00:16N 38°55' E 118°30'0 0.0
2016-Nov-29 23:25N 38°55' E 118°30'0 0.0
2016-Nov-29 17:28N 38°55' E 118°30'0 0.0
2016-Nov-29 16:14N 38°55' E 118°30'0 0.0
2016-Nov-29 13:16N 38°55' E 118°30'0 0.0
2016-Nov-29 12:30N 38°55' E 118°30'0 0.0
2016-Nov-29 11:23N 38°55' E 118°30'0 0.0
2016-Nov-29 10:23N 38°55' E 118°30'0 0.0
2016-Nov-29 08:33N 38°55' E 118°30'0 0.0
2016-Nov-29 05:22N 38°55' E 118°30'0 0.0
2016-Nov-29 04:32N 38°55' E 118°30'0 0.0
2016-Nov-29 02:27N 38°55' E 118°30'0 0.0
2016-Nov-29 00:34N 38°55' E 118°30'0 0.0
2016-Nov-28 22:26N 38°55' E 118°30'0 0.0
2016-Nov-28 21:19N 38°55' E 118°30'0 0.0
2016-Nov-28 20:25N 38°55' E 118°30'0 0.0
2016-Nov-28 19:33N 38°55' E 118°30'0 0.0
2016-Nov-28 18:32N 38°55' E 118°30'0 0.0
2016-Nov-28 17:33N 38°55' E 118°30'0 0.0
2016-Nov-28 14:15N 38°55' E 118°30'0 0.0
2016-Nov-28 13:32N 38°55' E 118°30'0 0.0
2016-Nov-28 12:29N 38°55' E 118°30'0 0.0
2016-Nov-28 11:15N 38°55' E 118°30'0 0.0
2016-Nov-28 10:33N 38°55' E 118°30'0 0.0
2016-Nov-28 09:32N 38°55' E 118°30'0 0.0
2016-Nov-28 08:33N 38°55' E 118°30'0 0.0
2016-Nov-28 06:33N 38°55' E 118°30'0 0.0
2016-Nov-28 05:24N 38°55' E 118°30'0 0.0
2016-Nov-28 04:34N 38°55' E 118°30'0 0.0
2016-Nov-28 03:33N 38°55' E 118°30'0 0.0
2016-Nov-28 02:30N 38°55' E 118°30'0 0.0
2016-Nov-28 01:33N 38°55' E 118°30'0 0.0
2016-Nov-27 22:26N 38°55' E 118°30'0 0.0
2016-Nov-27 21:26N 38°55' E 118°30'0 0.0
2016-Nov-27 20:34N 38°55' E 118°30'0 0.0
2016-Nov-27 19:18N 38°55' E 118°30'0 0.0
2016-Nov-27 18:34N 38°55' E 118°30'0 0.0
2016-Nov-27 17:30N 38°55' E 118°30'0 0.0
2016-Nov-27 16:32N 38°55' E 118°30'0 0.0
2016-Nov-27 15:34N 38°55' E 118°30'0 0.0
2016-Nov-27 14:33N 38°55' E 118°30'0 0.0
2016-Nov-27 12:33N 38°55' E 118°30'0 0.0
2016-Nov-27 11:30N 38°55' E 118°30'0 0.0
2016-Nov-27 10:19N 38°55' E 118°30'0 0.0
2016-Nov-27 09:32N 38°55' E 118°30'0 0.0
2016-Nov-27 08:33N 38°55' E 118°30'0 0.0
2016-Nov-27 07:26N 38°55' E 118°30'0 0.0
2016-Nov-27 06:31N 38°55' E 118°30'0 0.0
2016-Nov-27 05:31N 38°55' E 118°30'0 0.0
2016-Nov-27 04:21N 38°55' E 118°30'6 3.3
2016-Nov-27 02:30N 38°52' E 118°37'2 0.8
2016-Nov-27 00:13N 38°52' E 118°39'0 0.2
2016-Nov-26 23:31N 38°52' E 118°39'  
2016-Nov-23 07:07N 38°52' E 118°39'1 0.0
2016-Nov-22 09:32N 38°52' E 118°40'10110.1
2016-Nov-21 23:32N 38°38' E 120°48'  
Track history (hours):
 
Tides and Currents Weather Stations Pressure Air Temp Water Temp Dewpoint Dewpoint Depression Visibility Wind Speed Wind Dir Waves Ship Positions

Bulk Hong Kong

Last reported at 2016-Nov-30 14:33 UTC. Time now 2016-Dec-08 02:11 UTC.
Position N 38°27' E 121°08'.

Length 289 m; draft 8.2 m.

Type: Cargo ship. MMSI: 371828000.

Date/timePositionNaut miles runAvg speedWind from/ knotsBaromVisibWave heightAir tempDewpointWater temp
2016-Nov-30 14:33N 38°27' E 121°08'1312.6
2016-Nov-30 13:33N 38°33' E 120°54'1313.2
2016-Nov-30 12:33N 38°36' E 120°38'102 9.1
2016-Nov-30 01:26N 38°55' E 118°30'0 0.0
2016-Nov-30 00:16N 38°55' E 118°30'0 0.0
2016-Nov-29 23:25N 38°55' E 118°30'0 0.0
2016-Nov-29 17:28N 38°55' E 118°30'0 0.0
2016-Nov-29 16:14N 38°55' E 118°30'0 0.0
2016-Nov-29 13:16N 38°55' E 118°30'0 0.0
2016-Nov-29 12:30N 38°55' E 118°30'0 0.0
2016-Nov-29 11:23N 38°55' E 118°30'0 0.0
2016-Nov-29 10:23N 38°55' E 118°30'0 0.0
2016-Nov-29 08:33N 38°55' E 118°30'0 0.0
2016-Nov-29 05:22N 38°55' E 118°30'0 0.0
2016-Nov-29 04:32N 38°55' E 118°30'0 0.0
2016-Nov-29 02:27N 38°55' E 118°30'0 0.0
2016-Nov-29 00:34N 38°55' E 118°30'0 0.0
2016-Nov-28 22:26N 38°55' E 118°30'0 0.0
2016-Nov-28 21:19N 38°55' E 118°30'0 0.0
2016-Nov-28 20:25N 38°55' E 118°30'0 0.0
2016-Nov-28 19:33N 38°55' E 118°30'0 0.0
2016-Nov-28 18:32N 38°55' E 118°30'0 0.0
2016-Nov-28 17:33N 38°55' E 118°30'0 0.0
2016-Nov-28 14:15N 38°55' E 118°30'0 0.0
2016-Nov-28 13:32N 38°55' E 118°30'0 0.0
2016-Nov-28 12:29N 38°55' E 118°30'0 0.0
2016-Nov-28 11:15N 38°55' E 118°30'0 0.0
2016-Nov-28 10:33N 38°55' E 118°30'0 0.0
2016-Nov-28 09:32N 38°55' E 118°30'0 0.0
2016-Nov-28 08:33N 38°55' E 118°30'0 0.0
2016-Nov-28 06:33N 38°55' E 118°30'0 0.0
2016-Nov-28 05:24N 38°55' E 118°30'0 0.0
2016-Nov-28 04:34N 38°55' E 118°30'0 0.0
2016-Nov-28 03:33N 38°55' E 118°30'0 0.0
2016-Nov-28 02:30N 38°55' E 118°30'0 0.0
2016-Nov-28 01:33N 38°55' E 118°30'0 0.0
2016-Nov-27 22:26N 38°55' E 118°30'0 0.0
2016-Nov-27 21:26N 38°55' E 118°30'0 0.0
2016-Nov-27 20:34N 38°55' E 118°30'0 0.0
2016-Nov-27 19:18N 38°55' E 118°30'0 0.0
2016-Nov-27 18:34N 38°55' E 118°30'0 0.0
2016-Nov-27 17:30N 38°55' E 118°30'0 0.0
2016-Nov-27 16:32N 38°55' E 118°30'0 0.0
2016-Nov-27 15:34N 38°55' E 118°30'0 0.0
2016-Nov-27 14:33N 38°55' E 118°30'0 0.0
2016-Nov-27 12:33N 38°55' E 118°30'0 0.0
2016-Nov-27 11:30N 38°55' E 118°30'0 0.0
2016-Nov-27 10:19N 38°55' E 118°30'0 0.0
2016-Nov-27 09:32N 38°55' E 118°30'0 0.0
2016-Nov-27 08:33N 38°55' E 118°30'0 0.0
2016-Nov-27 07:26N 38°55' E 118°30'0 0.0
2016-Nov-27 06:31N 38°55' E 118°30'0 0.0
2016-Nov-27 05:31N 38°55' E 118°30'0 0.0
2016-Nov-27 04:21N 38°55' E 118°30'6 3.3
2016-Nov-27 02:30N 38°52' E 118°37'2 0.8
2016-Nov-27 00:13N 38°52' E 118°39'0 0.2
2016-Nov-26 23:31N 38°52' E 118°39'  
2016-Nov-23 07:07N 38°52' E 118°39'1 0.0
2016-Nov-22 09:32N 38°52' E 118°40'10110.1
2016-Nov-21 23:32N 38°38' E 120°48'  

Dump ship's entire track history